Time;durP1;ratioP1;P1;durP2;ratioP2;P2;SDS_P1;SDS_P2;PMS_P1;PMS_P2;Temp;Humidity;BMP_temperature;BMP_pressure;BME280_temperature;BME280_humidity;BME280_pressure;Samples;Min_cycle;Max_cycle;Signal;HPM_P1;HPM_P2
2022/08/04 00:01:44;;;;;;;10.60;4.60;;;;;;;22.06;59.45;99080.75;5075013;28;20028;-57
2022/08/04 00:04:13;;;;;;;7.72;4.45;;;;;;;22.01;59.46;99082.84;5074225;28;20036;-57
2022/08/04 00:06:43;;;;;;;15.00;4.63;;;;;;;21.72;60.46;99081.59;5075122;28;20027;-56
2022/08/04 00:09:09;;;;;;;;;;;;;;;22.03;58.69;99075.94;5074960;28;20039;-56
2022/08/04 00:11:35;;;;;;;8.68;4.72;;;;;;;22.07;58.25;99074.19;5059888;28;20424;-56
2022/08/04 00:14:02;;;;;;;7.35;4.78;;;;;;;22.07;57.56;99073.41;5073374;28;20028;-56
2022/08/04 00:16:28;;;;;;;10.55;5.18;;;;;;;22.00;58.82;99075.81;5074506;28;20537;-56
2022/08/04 00:19:01;;;;;;;10.90;4.50;;;;;;;21.93;58.71;99065.38;5073983;28;20028;-57
2022/08/04 00:21:27;;;;;;;9.55;4.63;;;;;;;21.86;59.45;99073.22;5073213;28;20016;-56
2022/08/04 00:23:53;;;;;;;8.27;4.70;;;;;;;21.68;59.99;99081.41;5072936;28;20052;-57
2022/08/04 00:26:19;;;;;;;14.65;4.20;;;;;;;21.58;60.33;99081.72;5073148;28;20562;-57
2022/08/04 00:28:44;;;;;;;15.77;4.50;;;;;;;21.58;59.91;99086.38;5081248;28;20062;-57
2022/08/04 00:31:10;;;;;;;11.45;4.82;;;;;;;21.51;60.09;99081.38;5072966;28;20028;-57
2022/08/04 00:33:36;;;;;;;9.15;4.00;;;;;;;21.33;60.35;99086.75;5074191;28;20024;-56
2022/08/04 00:36:02;;;;;;;12.25;4.85;;;;;;;21.30;60.53;99087.41;5074313;28;20488;-57
2022/08/04 00:38:27;;;;;;;7.82;4.50;;;;;;;21.27;60.17;99079.06;5072978;28;20108;-57
2022/08/04 00:41:05;;;;;;;9.48;5.03;;;;;;;21.14;61.19;99088.94;5072859;28;20256;-57
2022/08/04 00:43:37;;;;;;;11.57;4.60;;;;;;;20.92;62.65;99080.84;5073974;28;20024;-56
2022/08/04 00:46:05;;;;;;;10.13;4.85;;;;;;;20.79;62.41;99088.00;5073958;28;20063;-57
2022/08/04 00:48:50;;;;;;;10.20;5.07;;;;;;;21.14;59.49;99083.50;5073439;28;20029;-56
2022/08/04 00:51:32;;;;;;;14.65;5.10;;;;;;;21.43;58.70;99076.72;5056613;28;20118;-58
2022/08/04 00:54:11;;;;;;;29.58;5.25;;;;;;;21.59;58.21;99082.50;5075372;28;20048;-57
2022/08/04 00:56:36;;;;;;;9.93;4.60;;;;;;;21.31;60.88;99080.81;5073805;28;20494;-57
2022/08/04 00:59:39;;;;;;;9.10;4.55;;;;;;;21.13;61.55;99070.22;5073755;28;20024;-56
2022/08/04 01:02:15;;;;;;;9.95;4.65;;;;;;;20.90;62.49;99076.53;5073678;28;20024;-57
2022/08/04 01:04:49;;;;;;;9.57;4.55;;;;;;;20.81;63.04;99075.69;5072938;28;20482;-58
2022/08/04 01:07:33;;;;;;;17.05;5.32;;;;;;;20.56;63.58;99076.38;5072425;28;20391;-56
2022/08/04 01:10:03;;;;;;;11.75;4.60;;;;;;;20.60;63.51;99080.09;5073707;28;20024;-57
2022/08/04 01:12:47;;;;;;;10.25;4.80;;;;;;;20.64;63.13;99081.88;5073591;28;20111;-58
2022/08/04 01:15:12;;;;;;;10.38;4.53;;;;;;;20.63;63.63;99074.81;5073175;28;20047;-57
2022/08/04 01:18:06;;;;;;;8.65;4.55;;;;;;;20.60;63.63;99077.38;5078802;28;20032;-56
2022/08/04 01:20:34;;;;;;;9.90;5.38;;;;;;;20.59;63.48;99064.84;5072071;28;20029;-56
2022/08/04 01:23:08;;;;;;;13.07;4.97;;;;;;;20.63;62.96;99074.00;5073397;28;20075;-57
2022/08/04 01:25:40;;;;;;;12.73;4.85;;;;;;;20.63;62.83;99074.00;5061302;28;20383;-58
2022/08/04 01:28:18;;;;;;;10.57;4.97;;;;;;;20.50;62.98;99067.50;5073117;28;20532;-57
2022/08/04 01:30:45;;;;;;;13.82;5.35;;;;;;;20.37;63.89;99062.97;5072099;28;20047;-58
2022/08/04 01:33:13;;;;;;;13.48;5.22;;;;;;;20.03;65.97;99062.41;5071560;28;20379;-57
2022/08/04 01:35:52;;;;;;;10.43;4.90;;;;;;;19.87;66.29;99063.91;5076353;28;20090;-57
2022/08/04 01:38:38;;;;;;;17.70;5.47;;;;;;;20.10;64.92;99055.75;5071664;28;20402;-57
2022/08/04 01:41:08;;;;;;;25.42;5.82;;;;;;;20.19;64.83;99062.84;5072082;28;20058;-57
2022/08/04 01:43:34;;;;;;;20.25;5.63;;;;;;;20.19;64.73;99053.84;5076835;28;20024;-56
2022/08/04 01:46:01;;;;;;;28.77;6.47;;;;;;;20.15;65.38;99063.78;5079451;28;20028;-56
2022/08/04 01:48:27;;;;;;;20.75;6.93;;;;;;;20.12;65.17;99054.31;5072373;28;20035;-56
2022/08/04 01:50:53;;;;;;;21.58;6.53;;;;;;;20.15;65.21;99052.88;5071427;28;20035;-58
2022/08/04 01:53:19;;;;;;;23.08;6.55;;;;;;;20.07;65.58;99048.19;5071444;28;20033;-57
2022/08/04 01:55:48;;;;;;;18.50;6.53;;;;;;;20.11;65.28;99057.34;5072640;28;20028;-55
2022/08/04 01:58:17;;;;;;;33.28;7.85;;;;;;;19.92;66.22;99061.06;5071024;28;20032;-56
2022/08/04 02:00:45;;;;;;;50.25;7.32;;;;;;;19.79;67.35;99056.44;5071401;28;20028;-56
2022/08/04 02:03:12;;;;;;;25.70;7.40;;;;;;;20.07;66.15;99061.78;5054363;28;20386;-58
2022/08/04 02:05:38;;;;;;;38.75;6.78;;;;;;;19.97;67.18;99057.41;5070940;28;20036;-57
2022/08/04 02:09:02;;;;;;;27.00;7.18;;;;;;;19.86;67.58;99047.88;5041658;28;20039;-58
2022/08/04 02:11:28;;;;;;;28.58;7.60;;;;;;;19.85;67.92;99049.78;5042686;28;20041;-57
2022/08/04 02:14:05;;;;;;;22.85;6.97;;;;;;;19.95;67.41;99044.09;5072986;28;20540;-57
2022/08/04 02:16:45;;;;;;;21.67;6.93;;;;;;;19.88;66.91;99043.72;5059160;28;20036;-57
2022/08/04 02:19:31;;;;;;;21.48;6.75;;;;;;;19.93;67.31;99051.78;5070197;28;20036;-58
2022/08/04 02:22:02;;;;;;;18.42;6.65;;;;;;;19.93;66.72;99038.16;5072382;28;20234;-56
2022/08/04 02:24:27;;;;;;;15.38;6.25;;;;;;;19.92;67.40;99042.00;5071307;28;20020;-56
2022/08/04 02:26:53;;;;;;;14.43;6.68;;;;;;;19.80;67.58;99044.47;5054110;28;20595;-57
2022/08/04 02:29:19;;;;;;;17.30;6.80;;;;;;;19.79;67.73;99040.13;5054117;28;20033;-57
2022/08/04 02:32:02;;;;;;;20.42;6.18;;;;;;;19.78;67.56;99041.25;5077112;28;20112;-56
2022/08/04 02:34:32;;;;;;;19.42;6.50;;;;;;;19.76;68.15;99043.47;5071612;28;20493;-57
2022/08/04 02:36:58;;;;;;;19.23;6.70;;;;;;;19.75;67.41;99050.03;5071045;28;20028;-56
2022/08/04 02:39:23;;;;;;;20.38;6.35;;;;;;;19.68;68.31;99036.84;5079510;28;20035;-56
2022/08/04 02:41:49;;;;;;;15.80;6.20;;;;;;;19.52;68.07;99036.38;5053982;28;20024;-57
2022/08/04 02:44:19;;;;;;;19.05;6.10;;;;;;;19.53;69.16;99037.97;5059796;28;20036;-56
2022/08/04 02:46:44;;;;;;;;;;;;;;;19.50;69.65;99035.88;5072951;28;20033;-56
2022/08/04 02:49:10;;;;;;;14.00;6.95;;;;;;;19.58;68.76;99040.56;5070395;28;20362;-57
2022/08/04 02:51:42;;;;;;;13.88;7.18;;;;;;;19.60;68.48;99038.38;5072089;28;20051;-57
2022/08/04 02:54:08;;;;;;;18.70;7.03;;;;;;;19.40;70.07;99033.38;5071987;28;20029;-57
2022/08/04 02:56:34;;;;;;;15.45;6.25;;;;;;;19.48;69.57;99034.56;5071918;28;20112;-57
2022/08/04 02:59:02;;;;;;;21.77;7.28;;;;;;;19.51;69.56;99031.25;5070495;28;20475;-57
2022/08/04 03:01:27;;;;;;;16.08;6.55;;;;;;;19.59;69.83;99028.59;5072063;28;20226;-57
2022/08/04 03:04:08;;;;;;;15.60;7.00;;;;;;;19.64;69.52;99038.53;5070898;28;20189;-57
2022/08/04 03:06:40;;;;;;;20.85;6.75;;;;;;;19.70;68.99;99031.13;5071701;28;20033;-57
2022/08/04 03:09:20;;;;;;;31.05;7.35;;;;;;;19.64;69.24;99026.88;5071586;28;20019;-58
2022/08/04 03:12:03;;;;;;;14.40;7.00;;;;;;;19.66;69.40;99035.53;5071543;28;20028;-57
2022/08/04 03:14:47;;;;;;;17.38;7.45;;;;;;;19.66;69.27;99035.53;5070388;28;20034;-56
2022/08/04 03:17:46;;;;;;;15.52;6.97;;;;;;;19.71;69.25;99040.88;5071777;28;20056;-56
2022/08/04 03:20:30;;;;;;;21.73;7.77;;;;;;;19.60;69.60;99035.66;5075433;28;20036;-56
2022/08/04 03:23:17;;;;;;;16.63;6.80;;;;;;;19.52;69.82;99038.28;5071541;28;20040;-56
2022/08/04 03:26:05;;;;;;;13.82;7.05;;;;;;;19.51;70.13;99037.47;5071750;28;20119;-56
2022/08/04 03:29:02;;;;;;;13.70;7.30;;;;;;;19.48;69.94;99040.81;5070595;28;20547;-56
2022/08/04 03:31:46;;;;;;;15.30;7.60;;;;;;;19.49;69.98;99042.41;5074592;28;20505;-57
2022/08/04 03:34:24;;;;;;;19.73;7.03;;;;;;;19.41;69.54;99040.41;5071322;28;20028;-56
2022/08/04 03:36:59;;;;;;;16.75;7.20;;;;;;;19.43;69.74;99035.50;5069987;28;20038;-56
2022/08/04 03:40:18;;;;;;;20.85;7.45;;;;;;;19.28;70.60;99033.91;5072092;28;20032;-56
2022/08/04 03:42:52;;;;;;;15.57;7.18;;;;;;;19.49;69.84;99036.97;5045317;28;20024;-57
2022/08/04 03:45:23;;;;;;;18.38;7.88;;;;;;;19.46;69.66;99025.91;5030790;28;20056;-57
2022/08/04 03:48:14;;;;;;;16.08;7.57;;;;;;;19.39;69.27;99027.16;5062633;28;20127;-57
2022/08/04 03:54:31;;;;;;;17.58;7.15;;;;;;;19.07;69.21;99030.00;5070854;28;20064;-57
2022/08/04 03:57:22;;;;;;;18.83;7.40;;;;;;;18.72;72.16;99030.41;5071563;28;20036;-57
2022/08/04 04:00:02;;;;;;;12.63;7.32;;;;;;;18.61;73.65;99023.53;5073821;28;20047;-57
2022/08/04 04:02:59;;;;;;;14.07;7.68;;;;;;;18.66;73.35;99026.16;5074806;28;20033;-57
2022/08/04 04:06:01;;;;;;;17.45;7.90;;;;;;;18.95;72.23;99033.25;5073190;28;20049;-57
2022/08/04 04:08:57;;;;;;;15.07;6.90;;;;;;;18.95;71.64;99034.03;5074593;28;20474;-57
2022/08/04 04:11:41;;;;;;;13.68;7.30;;;;;;;19.10;70.88;99035.66;5081239;28;20035;-56
2022/08/04 04:14:15;;;;;;;13.40;7.35;;;;;;;18.99;71.57;99030.72;5087160;28;20470;-57
2022/08/04 04:16:43;;;;;;;19.83;7.40;;;;;;;19.40;69.75;99028.75;5077515;28;20024;-58
2022/08/04 04:19:33;;;;;;;18.65;8.20;;;;;;;19.71;68.82;99030.00;5075466;28;20032;-57
2022/08/04 04:22:11;;;;;;;19.42;7.30;;;;;;;19.72;69.17;99028.88;5074350;28;20320;-55
2022/08/04 04:25:02;;;;;;;26.52;7.50;;;;;;;19.71;68.04;99032.72;5083591;28;20028;-56
2022/08/04 04:28:05;;;;;;;19.20;7.25;;;;;;;19.92;68.16;99038.47;5079631;28;20106;-58
2022/08/04 04:30:33;;;;;;;27.33;8.70;;;;;;;20.30;67.08;99038.09;5078380;28;20036;-58
2022/08/04 04:33:17;;;;;;;18.20;8.23;;;;;;;20.14;67.23;99034.94;5077295;28;20025;-57
2022/08/04 04:35:57;;;;;;;17.88;8.18;;;;;;;20.93;65.00;99038.91;5077185;28;20028;-57
2022/08/04 04:38:51;;;;;;;21.48;8.00;;;;;;;21.59;61.73;99039.69;5073750;28;20028;-57
2022/08/04 04:41:30;;;;;;;17.55;7.32;;;;;;;22.12;59.89;99044.00;5066774;28;20024;-58
2022/08/04 04:44:17;;;;;;;17.55;7.20;;;;;;;22.36;59.31;99045.41;5073967;28;20021;-57
2022/08/04 04:46:57;;;;;;;23.40;7.20;;;;;;;23.04;56.25;99043.59;5077965;28;20043;-57
2022/08/04 04:49:36;;;;;;;16.70;6.93;;;;;;;22.97;56.58;99034.28;5072557;28;20390;-57
2022/08/04 04:52:14;;;;;;;21.95;7.95;;;;;;;23.76;54.61;99046.34;5071165;28;20031;-58
2022/08/04 04:55:01;;;;;;;19.02;7.40;;;;;;;23.68;54.04;99045.25;5080249;28;20497;-57
2022/08/04 04:57:28;;;;;;;23.25;7.20;;;;;;;22.64;58.13;99050.47;5075338;28;20024;-58
2022/08/04 05:00:13;;;;;;;15.93;6.93;;;;;;;22.75;58.14;99041.59;5072895;28;20031;-56
2022/08/04 05:02:53;;;;;;;16.80;7.90;;;;;;;22.32;59.21;99049.94;5057669;28;20394;-61
2022/08/04 05:05:38;;;;;;;18.73;7.00;;;;;;;22.11;60.24;99044.31;5072116;28;20044;-57
2022/08/04 05:08:19;;;;;;;16.48;7.25;;;;;;;22.97;59.05;99051.50;5071972;28;20036;-57
2022/08/04 05:10:59;;;;;;;19.90;7.00;;;;;;;23.31;56.71;99055.16;5077468;28;20069;-57
2022/08/04 05:13:41;;;;;;;15.27;6.90;;;;;;;23.71;55.12;99056.66;5075560;28;20028;-57
2022/08/04 05:16:18;;;;;;;12.60;6.93;;;;;;;24.86;51.53;99050.56;5082288;28;20024;-57
2022/08/04 05:18:45;;;;;;;11.80;6.80;;;;;;;26.17;48.66;99050.22;5071345;28;20043;-57
2022/08/04 05:21:58;;;;;;;15.77;6.90;;;;;;;26.68;46.94;99057.84;5039342;28;20048;-56
2022/08/04 05:24:23;;;;;;;13.18;5.93;;;;;;;23.82;53.92;99061.44;5056948;28;20040;-57
2022/08/04 05:26:55;;;;;;;17.98;7.32;;;;;;;25.34;50.58;99065.44;5071652;28;20028;-57
2022/08/04 05:30:01;;;;;;;14.05;7.57;;;;;;;25.28;50.44;99066.81;5055654;28;20033;-57
2022/08/04 05:32:28;;;;;;;14.05;6.78;;;;;;;25.06;51.63;99076.25;5076210;28;20047;-57
2022/08/04 05:34:59;;;;;;;28.80;7.82;;;;;;;27.34;46.51;99074.78;5071170;28;20386;-57
2022/08/04 05:37:24;;;;;;;16.83;7.80;;;;;;;25.90;49.17;99073.00;5063590;28;20082;-57
2022/08/04 05:39:56;;;;;;;15.30;7.07;;;;;;;26.76;48.58;99064.31;5074621;28;20028;-57
2022/08/04 05:42:21;;;;;;;20.48;7.82;;;;;;;28.22;44.36;99055.00;5073220;28;20028;-57
2022/08/04 05:44:47;;;;;;;17.70;7.20;;;;;;;27.32;46.11;99064.94;5097612;28;20028;-57
2022/08/04 05:47:12;;;;;;;14.73;6.63;;;;;;;27.10;47.29;99063.59;5073198;28;20024;-57
2022/08/04 05:49:38;;;;;;;13.15;6.30;;;;;;;28.04;45.19;99060.97;5072820;28;20447;-57
2022/08/04 05:52:03;;;;;;;16.70;6.57;;;;;;;27.40;45.64;99059.59;5071384;28;20036;-58
2022/08/04 05:54:30;;;;;;;24.27;6.85;;;;;;;28.38;43.91;99064.78;5071530;28;20082;-57
2022/08/04 05:56:55;;;;;;;12.73;7.00;;;;;;;29.18;42.13;99066.94;5072825;28;20992;-57
2022/08/04 05:59:24;;;;;;;20.23;6.80;;;;;;;28.96;43.00;99069.34;5075164;28;20028;-57
2022/08/04 06:01:49;;;;;;;17.58;6.55;;;;;;;30.58;40.43;99080.56;5071156;28;20031;-57
2022/08/04 06:04:15;;;;;;;15.75;6.25;;;;;;;29.79;41.73;99068.59;5070453;28;20040;-57
2022/08/04 06:06:41;;;;;;;16.13;6.82;;;;;;;30.77;39.48;99064.94;5071643;28;20036;-57
2022/08/04 06:09:06;;;;;;;14.85;7.28;;;;;;;29.99;40.76;99060.97;5072430;28;20024;-57
2022/08/04 06:11:32;;;;;;;12.93;6.25;;;;;;;29.55;41.64;99066.28;5075766;28;20028;-56
2022/08/04 06:13:59;;;;;;;15.95;6.50;;;;;;;31.05;39.58;99067.97;5077925;28;20066;-57
2022/08/04 06:16:26;;;;;;;10.85;6.00;;;;;;;32.24;37.88;99066.63;5071259;28;20040;-57
2022/08/04 06:18:52;;;;;;;11.80;6.00;;;;;;;32.20;37.61;99069.41;5056678;28;20024;-57
2022/08/04 06:21:19;;;;;;;15.88;5.93;;;;;;;30.88;39.27;99071.38;5070526;28;20490;-57
2022/08/04 06:23:45;;;;;;;16.23;6.45;;;;;;;30.71;39.65;99073.56;5073221;28;20032;-56
2022/08/04 06:26:10;;;;;;;18.27;5.72;;;;;;;31.75;38.32;99070.75;5085828;28;20032;-58
2022/08/04 06:28:35;;;;;;;15.50;5.70;;;;;;;31.84;38.15;99071.22;5082474;28;20032;-56
2022/08/04 06:31:06;;;;;;;9.77;5.65;;;;;;;32.96;35.97;99072.28;5073091;28;20035;-56
2022/08/04 06:33:35;;;;;;;16.75;5.95;;;;;;;32.80;36.44;99070.69;5072437;28;20017;-57
2022/08/04 06:36:01;;;;;;;16.45;5.40;;;;;;;33.93;34.60;99067.34;5062842;28;20036;-57
2022/08/04 06:38:28;;;;;;;12.50;5.45;;;;;;;32.59;36.44;99071.47;5070521;28;20064;-57
2022/08/04 06:40:56;;;;;;;13.05;6.03;;;;;;;32.68;36.98;99070.31;5063708;28;20108;-57
2022/08/04 06:43:22;;;;;;;16.52;5.88;;;;;;;32.26;37.41;99075.34;5070697;28;20025;-57
2022/08/04 06:45:47;;;;;;;12.98;4.97;;;;;;;32.92;36.80;99077.03;5075205;28;20029;-57
2022/08/04 06:48:14;;;;;;;14.18;5.75;;;;;;;33.28;35.09;99075.06;5053437;28;20036;-58
2022/08/04 06:50:39;;;;;;;15.93;5.32;;;;;;;31.82;37.85;99079.13;5070657;28;20038;-58
2022/08/04 06:53:05;;;;;;;13.95;5.53;;;;;;;32.67;36.55;99075.03;5053818;28;20025;-56
2022/08/04 06:55:30;;;;;;;30.25;5.57;;;;;;;34.07;34.71;99077.59;5072302;28;20390;-56
2022/08/04 06:57:56;;;;;;;51.78;7.40;;;;;;;34.30;34.33;99082.69;5071496;28;20025;-57
2022/08/04 07:00:22;;;;;;;43.40;7.05;;;;;;;32.81;36.38;99069.50;5039731;28;20352;-57
2022/08/04 07:02:49;;;;;;;39.70;6.80;;;;;;;34.22;34.08;99081.13;5069771;28;20082;-58
2022/08/04 07:05:15;;;;;;;39.13;7.13;;;;;;;34.87;33.46;99076.72;5070240;28;20101;-58
2022/08/04 07:07:40;;;;;;;39.30;6.22;;;;;;;34.83;32.97;99072.41;5053775;28;20020;-58
2022/08/04 07:10:07;;;;;;;28.27;6.82;;;;;;;34.00;34.23;99072.88;5073870;28;20029;-57
2022/08/04 07:12:32;;;;;;;49.15;7.50;;;;;;;33.76;35.56;99071.78;5077570;28;20031;-57
2022/08/04 07:14:58;;;;;;;37.85;7.60;;;;;;;34.92;33.21;99070.72;5070762;28;20021;-57
2022/08/04 07:17:23;;;;;;;35.13;7.32;;;;;;;35.37;32.59;99076.31;5075714;28;20020;-57
2022/08/04 07:19:49;;;;;;;48.95;7.00;;;;;;;35.08;32.43;99070.19;5069852;28;20060;-56
2022/08/04 07:22:14;;;;;;;54.63;7.45;;;;;;;34.17;33.84;99065.66;5071207;28;20024;-58
2022/08/04 07:24:40;;;;;;;45.03;7.22;;;;;;;34.10;34.12;99074.84;5069967;28;20033;-58
2022/08/04 07:27:06;;;;;;;56.65;8.45;;;;;;;34.51;33.43;99067.84;5071414;28;20028;-55
2022/08/04 07:29:32;;;;;;;51.65;7.57;;;;;;;34.56;33.50;99065.41;5076622;28;20030;-57
2022/08/04 07:31:57;;;;;;;45.65;7.65;;;;;;;33.89;34.15;99072.13;5074521;28;20028;-56
2022/08/04 07:34:23;;;;;;;68.22;8.18;;;;;;;35.15;32.76;99074.94;5057027;28;20031;-55
2022/08/04 07:36:50;;;;;;;56.00;7.57;;;;;;;35.84;31.21;99084.94;5074290;28;20059;-57
2022/08/04 07:39:16;;;;;;;53.70;7.32;;;;;;;35.19;32.12;99081.25;5073768;28;20386;-58
2022/08/04 07:41:42;;;;;;;59.55;7.18;;;;;;;35.82;31.79;99076.22;5057473;28;20066;-56
2022/08/04 07:44:07;;;;;;;48.85;7.45;;;;;;;35.73;31.73;99073.13;5074141;28;20519;-58
2022/08/04 07:46:33;;;;;;;57.38;7.63;;;;;;;37.15;30.03;99068.72;5056917;28;20036;-57
2022/08/04 07:48:59;;;;;;;53.72;8.02;;;;;;;37.09;29.88;99073.97;5075613;28;20024;-57
2022/08/04 07:51:25;;;;;;;47.28;8.20;;;;;;;37.36;29.74;99067.53;5081919;28;20033;-56
2022/08/04 07:53:50;;;;;;;54.17;7.22;;;;;;;35.63;31.49;99071.25;5060148;28;20463;-55
2022/08/04 07:56:15;;;;;;;57.63;7.22;;;;;;;35.66;31.54;99064.84;5073319;28;20047;-56
2022/08/04 07:58:41;;;;;;;63.90;7.93;;;;;;;34.73;33.50;99062.94;5074626;28;20036;-55
2022/08/04 08:01:08;;;;;;;57.28;8.60;;;;;;;35.56;32.33;99076.88;5075624;28;20024;-56
2022/08/04 08:03:36;;;;;;;68.25;8.55;;;;;;;36.22;31.12;99064.53;5077804;28;20024;-58
2022/08/04 08:06:03;;;;;;;;;;;;;;;35.20;32.18;99060.56;5080401;28;20064;-55
2022/08/04 08:08:31;;;;;;;54.25;7.88;;;;;;;35.73;32.20;99064.00;5075902;28;19923;-55
2022/08/04 08:10:56;;;;;;;60.17;8.68;;;;;;;36.26;31.68;99054.13;5075973;28;20032;-56
2022/08/04 08:13:23;;;;;;;64.75;8.50;;;;;;;36.36;31.55;99055.97;5074755;28;20024;-55
2022/08/04 08:15:49;;;;;;;49.95;7.57;;;;;;;37.55;29.38;99052.81;5055290;28;20028;-57
2022/08/04 08:18:14;;;;;;;66.22;8.90;;;;;;;37.05;29.93;99053.72;5072846;28;20040;-56
2022/08/04 08:20:43;;;;;;;57.13;8.13;;;;;;;37.46;29.15;99048.97;5076162;28;20017;-56
2022/08/04 08:23:08;;;;;;;;;;;;;;;36.84;29.23;99054.06;5077520;28;20031;-56
2022/08/04 08:25:34;;;;;;;52.17;7.47;;;;;;;36.57;29.87;99045.72;5084621;28;20329;-55
2022/08/04 08:28:02;;;;;;;34.78;6.45;;;;;;;36.64;29.46;99040.81;5072854;28;20631;-54
2022/08/04 08:30:27;;;;;;;37.15;6.60;;;;;;;37.28;28.87;99043.72;5074458;28;20063;-55
2022/08/04 08:32:52;;;;;;;37.97;6.22;;;;;;;36.03;29.98;99046.47;5074230;28;20387;-56
2022/08/04 08:35:18;;;;;;;26.73;5.35;;;;;;;35.03;30.73;99044.78;5074320;28;20429;-56
2022/08/04 08:37:46;;;;;;;17.27;3.88;;;;;;;36.00;27.23;99042.53;5073144;28;20028;-55
2022/08/04 08:40:21;;;;;;;12.27;3.90;;;;;;;34.74;28.86;99047.81;5081627;28;20449;-55
2022/08/04 08:43:25;;;;;;;10.70;3.60;;;;;;;35.34;28.45;99052.03;5072654;28;20433;-56
2022/08/04 08:46:18;;;;;;;14.13;4.53;;;;;;;35.17;28.96;99051.03;5073415;28;20096;-57
2022/08/04 08:49:10;;;;;;;18.77;4.18;;;;;;;37.16;26.88;99044.34;5073348;28;20028;-55
2022/08/04 08:51:39;;;;;;;7.32;3.50;;;;;;;35.05;27.98;99050.72;5064438;28;20067;-56
2022/08/04 08:54:40;;;;;;;12.18;4.20;;;;;;;35.74;29.04;99057.19;5076448;28;20044;-56
2022/08/04 08:57:11;;;;;;;9.13;3.72;;;;;;;36.22;27.82;99054.22;5070298;28;20024;-54
2022/08/04 08:59:46;;;;;;;13.98;3.80;;;;;;;37.81;25.95;99041.09;5073545;28;20442;-54
2022/08/04 09:02:41;;;;;;;10.40;3.75;;;;;;;37.64;26.04;99037.47;5073883;28;20029;-55
2022/08/04 09:05:43;;;;;;;14.73;3.83;;;;;;;36.95;26.97;99040.72;5072520;28;20523;-55
2022/08/04 09:08:19;;;;;;;9.48;3.70;;;;;;;36.76;27.46;99035.84;5073821;28;20036;-56
2022/08/04 09:11:13;;;;;;;12.50;3.90;;;;;;;36.52;28.10;99033.03;5079148;28;20029;-57
2022/08/04 09:13:49;;;;;;;18.77;4.60;;;;;;;35.51;28.93;99032.75;5055318;28;20031;-56
2022/08/04 09:16:20;;;;;;;8.32;4.15;;;;;;;35.66;28.79;99039.78;5072604;28;20033;-56
2022/08/04 09:18:53;;;;;;;8.68;3.88;;;;;;;36.27;27.88;99034.19;5057797;28;20516;-57
2022/08/04 09:21:29;;;;;;;8.40;3.45;;;;;;;34.98;29.40;99029.31;5074336;28;20033;-56
2022/08/04 09:24:02;;;;;;;17.80;3.83;;;;;;;37.35;27.09;99029.63;5080138;28;20106;-56
2022/08/04 09:26:39;;;;;;;16.10;3.85;;;;;;;37.26;27.10;99023.81;5086863;28;20020;-54
2022/08/04 09:29:14;;;;;;;10.75;3.95;;;;;;;35.21;29.09;99031.50;5057351;28;20044;-56
2022/08/04 09:31:56;;;;;;;9.88;4.13;;;;;;;35.74;28.19;99024.53;5077538;28;20376;-56
2022/08/04 09:34:44;;;;;;;11.20;3.83;;;;;;;37.31;26.74;99023.31;5072986;28;20360;-57
2022/08/04 09:37:34;;;;;;;19.55;4.20;;;;;;;34.92;29.91;99020.63;5071826;28;20043;-57
2022/08/04 09:40:09;;;;;;;8.32;3.50;;;;;;;36.82;27.12;99012.63;5073125;28;20033;-55
2022/08/04 09:42:40;;;;;;;9.57;3.58;;;;;;;35.96;28.00;99015.88;5073672;28;20032;-56
2022/08/04 09:45:17;;;;;;;18.60;4.30;;;;;;;35.56;28.45;99013.56;5071291;28;20021;-57
2022/08/04 09:48:05;;;;;;;11.20;3.55;;;;;;;36.66;26.96;99016.06;5072591;28;20174;-56
2022/08/04 09:50:39;;;;;;;11.93;3.47;;;;;;;37.06;27.01;99009.81;5071632;28;20020;-55
2022/08/04 09:53:20;;;;;;;6.68;3.20;;;;;;;37.70;25.50;99008.56;5072801;28;20499;-56
2022/08/04 09:55:45;;;;;;;7.70;3.45;;;;;;;38.62;25.42;99012.53;5072002;28;20037;-55
2022/08/04 09:58:40;;;;;;;8.90;3.30;;;;;;;38.83;24.41;99009.16;5072295;28;20145;-55
2022/08/04 10:01:08;;;;;;;9.73;3.38;;;;;;;39.03;24.09;99016.69;5075286;28;20382;-57
2022/08/04 10:03:35;;;;;;;7.25;3.22;;;;;;;38.99;24.04;98999.19;5071660;28;20024;-57
2022/08/04 10:06:25;;;;;;;13.35;3.38;;;;;;;38.96;23.98;99003.66;5071051;28;20029;-57
2022/08/04 10:09:14;;;;;;;7.38;2.92;;;;;;;39.98;23.14;99006.00;5072460;28;20020;-57
2022/08/04 10:11:48;;;;;;;10.05;3.20;;;;;;;40.02;22.77;99001.06;5071063;28;20082;-56
2022/08/04 10:14:31;;;;;;;11.43;3.38;;;;;;;35.58;25.84;99010.38;5072415;28;20089;-57
2022/08/04 10:17:20;;;;;;;5.72;2.88;;;;;;;35.04;27.29;98994.22;5071087;28;20035;-56
2022/08/04 10:19:46;;;;;;;8.95;2.90;;;;;;;36.14;25.93;98996.91;5070795;28;20067;-56
2022/08/04 10:22:18;;;;;;;10.93;3.30;;;;;;;36.63;26.49;98985.44;5054155;28;20069;-55
2022/08/04 10:24:49;;;;;;;7.22;3.80;;;;;;;35.38;26.66;98994.28;5072243;28;20028;-55
2022/08/04 10:27:17;;;;;;;8.98;3.47;;;;;;;34.88;27.09;98986.44;5072231;28;20033;-56
2022/08/04 10:29:44;;;;;;;9.73;3.72;;;;;;;35.94;26.28;98987.63;5076162;28;20032;-56
2022/08/04 10:32:34;;;;;;;6.97;3.00;;;;;;;36.26;26.51;98987.97;5072226;28;20025;-55
2022/08/04 10:35:26;;;;;;;7.03;3.00;;;;;;;36.71;24.87;98979.28;5076371;28;20032;-55
2022/08/04 10:38:12;;;;;;;4.65;2.80;;;;;;;37.34;23.69;98980.53;5055821;28;20032;-54
2022/08/04 10:40:56;;;;;;;4.30;2.80;;;;;;;38.48;22.13;98982.06;5071912;28;20471;-56
2022/08/04 10:43:38;;;;;;;8.40;2.60;;;;;;;38.26;22.27;98976.97;5075051;28;20036;-54
2022/08/04 10:46:05;;;;;;;8.35;2.60;;;;;;;38.69;21.96;98966.72;5055279;28;20025;-58
2022/08/04 10:48:56;;;;;;;9.57;3.10;;;;;;;37.41;23.43;98969.22;5071822;28;20083;-56
2022/08/04 10:51:40;;;;;;;6.05;2.78;;;;;;;37.69;21.83;98975.44;5072174;28;20165;-55
2022/08/04 10:54:08;;;;;;;12.68;2.83;;;;;;;38.36;21.52;98970.31;5055699;28;20027;-56
2022/08/04 10:56:52;;;;;;;9.70;2.55;;;;;;;38.60;21.38;98973.75;5070327;28;20115;-54
2022/08/04 10:59:25;;;;;;;8.35;2.92;;;;;;;39.32;20.91;98960.63;5070884;28;20033;-55
2022/08/04 11:01:51;;;;;;;6.38;2.38;;;;;;;39.17;21.16;98962.28;5053923;28;20024;-56
2022/08/04 11:04:24;;;;;;;7.20;2.30;;;;;;;39.10;20.23;98965.28;5075573;28;20160;-56
2022/08/04 11:06:51;;;;;;;7.82;2.72;;;;;;;38.17;21.79;98963.59;5075312;28;20070;-56
2022/08/04 11:09:17;;;;;;;6.63;2.40;;;;;;;38.91;21.12;98964.19;5072813;28;20471;-55
2022/08/04 11:11:52;;;;;;;7.43;2.53;;;;;;;39.63;20.99;98972.16;5075790;28;20032;-55
2022/08/04 11:14:33;;;;;;;9.75;2.53;;;;;;;39.87;20.47;98971.88;5058733;28;20032;-57
2022/08/04 11:17:10;;;;;;;7.07;2.30;;;;;;;39.79;20.50;98970.50;5074056;28;20020;-55
2022/08/04 11:19:38;;;;;;;8.73;2.72;;;;;;;40.34;19.90;98968.41;5078903;28;20040;-55
2022/08/04 11:22:08;;;;;;;6.68;2.25;;;;;;;39.29;19.79;98975.53;5075597;28;20024;-56
2022/08/04 11:24:46;;;;;;;5.60;2.42;;;;;;;39.83;18.93;98965.59;5074535;28;20078;-55
2022/08/04 11:27:24;;;;;;;8.63;2.22;;;;;;;40.22;19.16;98974.81;5081251;28;20035;-55
2022/08/04 11:30:03;;;;;;;6.03;2.10;;;;;;;40.41;18.70;98973.75;5074034;28;20780;-56
2022/08/04 11:32:46;;;;;;;7.88;2.22;;;;;;;40.56;17.96;98971.25;5074138;28;20094;-56
2022/08/04 11:35:16;;;;;;;7.88;2.47;;;;;;;39.83;19.14;98983.19;5074204;28;20056;-56
2022/08/04 11:37:45;;;;;;;6.40;2.33;;;;;;;38.90;19.82;98976.63;5075751;28;20530;-56
2022/08/04 11:40:22;;;;;;;6.85;2.17;;;;;;;38.73;19.91;98979.41;5074558;28;20046;-56
2022/08/04 11:42:54;;;;;;;6.50;2.42;;;;;;;38.94;19.52;98974.50;5074031;28;20047;-56
2022/08/04 11:45:25;;;;;;;8.10;2.40;;;;;;;38.77;19.79;98976.53;5075232;28;20021;-55
2022/08/04 11:48:28;;;;;;;7.32;2.30;;;;;;;38.45;19.74;98968.97;5057165;28;20028;-55
2022/08/04 11:50:55;;;;;;;8.48;2.20;;;;;;;38.30;20.38;98971.28;5078071;28;20032;-55
2022/08/04 11:53:22;;;;;;;3.55;2.35;;;;;;;37.41;20.95;98962.84;5074993;28;20028;-56
2022/08/04 11:55:52;;;;;;;5.90;2.70;;;;;;;37.13;21.74;98974.16;5074180;28;20391;-56
2022/08/04 11:58:17;;;;;;;4.65;2.20;;;;;;;37.67;20.41;98969.50;5073944;28;20431;-56
2022/08/04 12:01:02;;;;;;;7.07;2.40;;;;;;;36.60;21.34;98967.53;5075179;28;20035;-56
2022/08/04 12:03:36;;;;;;;4.70;2.40;;;;;;;36.16;21.28;98974.97;5073671;28;20107;-56
2022/08/04 12:06:21;;;;;;;5.20;2.30;;;;;;;36.10;22.09;98973.88;5077249;28;20439;-57